KCID/CID METAR and TAF weather

Enter ICAO airport designator
Station Type Date Time Source
KCID METAR 2022/11/26 09:52 UTC NOAA

KCID 260952Z AUTO 20009KT 10SM CLR M01/M04 A3006 RMK AO2 SLP186 T10061039


Station Type Date Time Source
KCID Decoded METAR 2022/11/26 09:52 UTC NOAA

CEDAR RAPIDS AIRPORT, IA, United States (KCID) 41-53N 91-43W
Nov 26, 2022 - 04:52 AM EST / 2022.11.26 0952 UTC
Wind: from the SSW (200 degrees) at 10 MPH (9 KT):0
Visibility: 10 mile(s):0
Sky conditions: clear
Temperature: 30.9 F (-0.6 C)
Windchill: 23 F (-5 C):1
Dew Point: 25.0 F (-3.9 C)
Relative Humidity: 78%
Pressure (altimeter): 30.06 in. Hg (1017 hPa)
ob: KCID 260952Z AUTO 20009KT 10SM CLR M01/M04 A3006 RMK AO2 SLP186 T10061039
cycle: 10

Station Type Date Time Source
KCID TAF 2022/11/26 06:22 UTC NOAA

TAF KCID 260520Z 2606/2706 23008KT P6SM SKC
FM261600 21011G19KT P6SM FEW250
FM262300 18007KT P6SM BKN240

Example: see airport list